Time;durP1;ratioP1;P1;durP2;ratioP2;P2;SDS_P1;SDS_P2;PMS_P1;PMS_P2;Temp;Humidity;BMP_temperature;BMP_pressure;BME280_temperature;BME280_humidity;BME280_pressure;Samples;Min_cycle;Max_cycle;Signal;HPM_P1;HPM_P2
2021/07/15 00:00:08;;;;;;;105.18;99.35;;;21.00;93.60;;;;;;5011088;28;20466;-77
2021/07/15 00:02:33;;;;;;;76.38;71.93;;;20.90;93.60;;;;;;5027343;28;20021;-77
2021/07/15 00:04:59;;;;;;;104.20;98.68;;;20.80;93.50;;;;;;5028848;28;20028;-77
2021/07/15 00:07:25;;;;;;;106.28;100.47;;;20.70;93.40;;;;;;5027525;28;20034;-77
2021/07/15 00:09:51;;;;;;;106.13;100.38;;;20.60;93.30;;;;;;5027375;28;20033;-77
2021/07/15 00:12:17;;;;;;;87.03;82.43;;;20.50;93.30;;;;;;5028647;28;20094;-77
2021/07/15 00:14:43;;;;;;;66.38;62.88;;;20.50;93.20;;;;;;5027215;28;20025;-76
2021/07/15 00:17:09;;;;;;;47.00;44.15;;;20.40;93.20;;;;;;5027239;28;20029;-78
2021/07/15 00:19:35;;;;;;;52.50;49.80;;;20.40;93.10;;;;;;5028509;28;20395;-77
2021/07/15 00:22:02;;;;;;;41.08;38.75;;;20.40;93.00;;;;;;5028539;28;20021;-77
2021/07/15 00:24:28;;;;;;;40.05;37.90;;;20.40;92.90;;;;;;5027167;28;20486;-77
2021/07/15 00:26:55;;;;;;;47.15;44.53;;;20.40;92.90;;;;;;5028290;28;20075;-77
2021/07/15 00:29:21;;;;;;;59.08;55.83;;;20.40;92.80;;;;;;5028130;28;20091;-78
2021/07/15 00:31:47;;;;;;;67.93;64.40;;;20.40;92.70;;;;;;5028251;28;20091;-77
2021/07/15 00:34:13;;;;;;;59.20;56.00;;;20.50;92.60;;;;;;5028353;28;20048;-75
2021/07/15 00:36:39;;;;;;;68.28;64.55;;;20.50;92.50;;;;;;5028344;28;20022;-76
2021/07/15 00:39:06;;;;;;;54.53;51.78;;;20.50;92.40;;;;;;5028146;28;20116;-77
2021/07/15 00:41:32;;;;;;;78.90;74.82;;;20.50;92.30;;;;;;5028091;28;20087;-77
2021/07/15 00:43:58;;;;;;;71.68;67.68;;;20.50;92.20;;;;;;5028109;28;20421;-77
2021/07/15 00:46:24;;;;;;;47.92;45.40;;;20.40;92.10;;;;;;5028099;28;20100;-78
2021/07/15 00:48:50;;;;;;;81.43;77.13;;;20.40;92.10;;;;;;5027977;28;20559;-77
2021/07/15 00:51:16;;;;;;;75.13;71.05;;;20.40;92.10;;;;;;5027595;28;20051;-77
2021/07/15 00:53:42;;;;;;;78.05;73.88;;;20.40;92.10;;;;;;5027956;28;20022;-77
2021/07/15 00:56:10;;;;;;;64.82;61.40;;;20.30;92.00;;;;;;5028008;28;20097;-77
2021/07/15 00:58:36;;;;;;;58.58;55.50;;;20.30;92.00;;;;;;5026479;28;20025;-77
2021/07/15 01:01:02;;;;;;;66.03;62.72;;;20.30;92.00;;;;;;5010025;28;20099;-77
2021/07/15 01:03:27;;;;;;;66.75;63.33;;;20.20;92.00;;;;;;5027858;28;20057;-77
2021/07/15 01:05:55;;;;;;;42.70;40.33;;;20.20;92.10;;;;;;5026670;28;20080;-78
2021/07/15 01:08:21;;;;;;;40.45;38.35;;;20.20;92.10;;;;;;5027707;28;20188;-77
2021/07/15 01:11:21;;;;;;;43.47;40.88;;;20.20;92.10;;;;;;5027719;28;20468;-77
2021/07/15 01:13:54;;;;;;;50.72;47.92;;;20.20;92.20;;;;;;5020511;28;20037;-77
2021/07/15 01:16:42;;;;;;;47.42;44.85;;;20.20;92.10;;;;;;5026399;28;20025;-77
2021/07/15 01:19:45;;;;;;;42.65;40.40;;;20.20;92.00;;;;;;5027664;28;20519;-77
2021/07/15 01:22:20;;;;;;;38.92;36.83;;;20.20;92.00;;;;;;5021436;28;20041;-77
2021/07/15 01:25:25;;;;;;;44.45;41.75;;;20.20;92.00;;;;;;5027672;28;20041;-76
2021/07/15 01:28:06;;;;;;;54.65;51.90;;;20.20;92.00;;;;;;5026022;28;20052;-77
2021/07/15 01:30:48;;;;;;;51.92;49.20;;;20.20;91.90;;;;;;5026156;28;20032;-77
2021/07/15 01:33:15;;;;;;;39.95;37.70;;;20.20;91.90;;;;;;5027577;28;20032;-77
2021/07/15 01:35:55;;;;;;;58.47;55.47;;;20.20;91.90;;;;;;5026187;28;20026;-77
2021/07/15 01:38:24;;;;;;;59.20;56.15;;;20.20;91.90;;;;;;5026164;28;20639;-77
2021/07/15 01:40:53;;;;;;;;;;;20.20;91.90;;;;;;5027909;28;20052;-77
2021/07/15 01:43:25;;;;;;;51.35;48.60;;;20.20;91.80;;;;;;5027407;28;19912;-76
2021/07/15 01:45:51;;;;;;;42.08;39.70;;;20.20;91.70;;;;;;5027535;28;20025;-77
2021/07/15 01:48:18;;;;;;;40.38;38.15;;;20.10;91.70;;;;;;5026012;28;20475;-77
2021/07/15 01:50:44;;;;;;;43.75;41.22;;;20.10;91.80;;;;;;5025855;28;20052;-78
2021/07/15 01:53:10;;;;;;;41.83;39.42;;;20.00;91.80;;;;;;5027397;28;20040;-78
2021/07/15 01:55:37;;;;;;;44.72;42.25;;;20.00;91.90;;;;;;5027391;28;20033;-76
2021/07/15 01:58:03;;;;;;;41.97;39.83;;;20.00;91.90;;;;;;5027311;28;20025;-78
2021/07/15 02:00:29;;;;;;;41.45;39.22;;;19.90;92.00;;;;;;5025984;28;20559;-76
2021/07/15 02:02:56;;;;;;;40.20;38.00;;;19.90;92.00;;;;;;5028408;28;20037;-77
2021/07/15 02:05:23;;;;;;;43.63;41.30;;;20.00;92.00;;;;;;5031236;28;20087;-75
2021/07/15 02:07:49;;;;;;;51.08;48.42;;;19.90;92.10;;;;;;5031040;28;20049;-77
2021/07/15 02:10:22;;;;;;;44.70;42.20;;;19.90;92.00;;;;;;5029707;28;20387;-77
2021/07/15 02:12:48;;;;;;;45.03;42.60;;;19.90;92.10;;;;;;5030960;28;20052;-77
2021/07/15 02:15:14;;;;;;;51.13;48.17;;;20.00;92.00;;;;;;5030947;28;20395;-77
2021/07/15 02:17:41;;;;;;;60.45;57.20;;;19.90;92.00;;;;;;5029434;28;20025;-76
2021/07/15 02:20:11;;;;;;;51.17;48.25;;;19.90;92.00;;;;;;5030935;28;20054;-77
2021/07/15 02:22:38;;;;;;;39.88;37.58;;;19.90;92.00;;;;;;5030674;28;20535;-77
2021/07/15 02:25:06;;;;;;;40.30;38.00;;;19.90;92.00;;;;;;5030765;28;20060;-77
2021/07/15 02:27:33;;;;;;;40.88;38.72;;;19.90;92.00;;;;;;5030451;28;20068;-76
2021/07/15 02:29:59;;;;;;;37.55;35.35;;;19.80;92.00;;;;;;5029407;28;20026;-77
2021/07/15 02:32:26;;;;;;;44.75;42.35;;;19.80;92.00;;;;;;5012842;28;20037;-77
2021/07/15 02:35:01;;;;;;;73.18;69.15;;;19.80;92.00;;;;;;5030771;28;20028;-78
2021/07/15 02:37:31;;;;;;;45.20;42.72;;;19.80;92.10;;;;;;5030544;28;20014;-77
2021/07/15 02:39:57;;;;;;;51.55;48.63;;;19.80;92.10;;;;;;5030785;28;20642;-77
2021/07/15 02:42:23;;;;;;;44.53;42.15;;;19.80;92.00;;;;;;5030320;28;20032;-78
2021/07/15 02:44:49;;;;;;;46.42;43.97;;;19.80;92.00;;;;;;5029140;28;20487;-77
2021/07/15 02:47:15;;;;;;;43.67;41.33;;;19.70;92.00;;;;;;5029243;28;20086;-77
2021/07/15 02:49:44;;;;;;;43.47;41.13;;;19.80;92.00;;;;;;5030226;28;20104;-77
2021/07/15 02:52:10;;;;;;;63.08;59.70;;;19.80;92.00;;;;;;5029127;28;20029;-77
2021/07/15 02:54:38;;;;;;;57.00;54.00;;;19.80;92.00;;;;;;5028842;28;20022;-78
2021/07/15 02:57:23;;;;;;;47.83;45.35;;;19.70;92.00;;;;;;5028923;28;20075;-77
2021/07/15 03:00:07;;;;;;;77.82;73.88;;;19.70;92.00;;;;;;5028755;28;20546;-77
2021/07/15 03:02:42;;;;;;;70.75;67.10;;;19.70;92.10;;;;;;5028618;28;20119;-77
2021/07/15 03:05:12;;;;;;;60.33;57.20;;;19.60;91.90;;;;;;5030068;28;20022;-76
2021/07/15 03:07:57;;;;;;;64.65;61.15;;;19.60;91.90;;;;;;5030038;28;20030;-75
2021/07/15 03:10:23;;;;;;;59.88;56.83;;;19.70;92.00;;;;;;5029848;28;20056;-77
2021/07/15 03:12:52;;;;;;;82.82;78.60;;;19.60;91.90;;;;;;5029887;28;20108;-77
2021/07/15 03:15:18;;;;;;;55.75;52.60;;;19.60;91.90;;;;;;5028259;28;20037;-77
2021/07/15 03:17:47;;;;;;;42.15;39.95;;;19.60;91.80;;;;;;5029759;28;20025;-77
2021/07/15 03:20:19;;;;;;;47.83;45.03;;;19.60;91.90;;;;;;5029779;28;20072;-75
2021/07/15 03:22:49;;;;;;;44.35;41.65;;;19.60;91.90;;;;;;5029673;28;20586;-77
2021/07/15 03:25:17;;;;;;;51.47;48.88;;;19.60;91.80;;;;;;5029718;28;20464;-76
2021/07/15 03:27:49;;;;;;;40.60;38.25;;;19.50;91.90;;;;;;5029397;28;20069;-78
2021/07/15 03:30:16;;;;;;;63.60;60.28;;;19.50;91.90;;;;;;5029669;28;20022;-77
2021/07/15 03:32:45;;;;;;;50.13;47.58;;;19.50;91.90;;;;;;5029463;28;20029;-78
2021/07/15 03:35:13;;;;;;;40.28;38.05;;;19.50;91.90;;;;;;5029477;28;20036;-77
2021/07/15 03:37:41;;;;;;;54.08;51.17;;;19.50;91.90;;;;;;5028052;28;20018;-78
2021/07/15 03:40:08;;;;;;;38.35;36.10;;;19.50;91.90;;;;;;5029441;28;20109;-75
2021/07/15 03:42:36;;;;;;;51.63;48.65;;;19.60;91.90;;;;;;5027935;28;20185;-76
2021/07/15 03:45:02;;;;;;;34.97;33.03;;;19.50;91.90;;;;;;5029246;28;20033;-76
2021/07/15 03:47:28;;;;;;;43.90;41.35;;;19.50;91.90;;;;;;5027939;28;20144;-77
2021/07/15 03:49:56;;;;;;;43.47;41.13;;;19.50;91.80;;;;;;5029034;28;20053;-77
2021/07/15 03:52:22;;;;;;;40.42;38.30;;;19.50;91.80;;;;;;5029002;28;20030;-77
2021/07/15 03:54:50;;;;;;;39.88;37.47;;;19.50;91.80;;;;;;5027805;28;20035;-76
2021/07/15 03:57:18;;;;;;;40.88;38.70;;;19.40;91.80;;;;;;5029062;28;20040;-76
2021/07/15 03:59:47;;;;;;;39.67;37.28;;;19.40;91.80;;;;;;5028991;28;20017;-77
2021/07/15 04:02:16;;;;;;;58.80;55.75;;;19.40;91.80;;;;;;5029030;28;20076;-76
2021/07/15 04:04:46;;;;;;;49.58;47.03;;;19.40;91.70;;;;;;5027565;28;20029;-77
2021/07/15 04:07:13;;;;;;;;;;;19.40;91.70;;;;;;5027995;28;20386;-77
2021/07/15 04:09:39;;;;;;;52.70;49.75;;;19.30;91.70;;;;;;5028694;28;20004;-77
2021/07/15 04:12:07;;;;;;;264.13;250.60;;;19.30;91.60;;;;;;5027411;28;20446;-76
2021/07/15 04:14:48;;;;;;;241.52;229.70;;;19.30;91.60;;;;;;5029069;28;20372;-77
2021/07/15 04:17:16;;;;;;;255.50;242.60;;;19.20;91.60;;;;;;5028727;28;20017;-76
2021/07/15 04:19:43;;;;;;;223.85;212.82;;;19.20;91.60;;;;;;5027398;28;20262;-75
2021/07/15 04:22:11;;;;;;;226.65;215.57;;;19.20;91.60;;;;;;5027207;28;20108;-77
2021/07/15 04:24:39;;;;;;;257.20;244.57;;;19.20;91.60;;;;;;5027130;28;20053;-77
2021/07/15 04:27:05;;;;;;;238.30;226.35;;;19.20;91.60;;;;;;5009819;28;20059;-76
2021/07/15 04:29:31;;;;;;;239.48;227.77;;;19.20;91.60;;;;;;5027054;28;20046;-74
2021/07/15 04:32:00;;;;;;;279.70;265.95;;;19.20;91.60;;;;;;5028131;28;20048;-76
2021/07/15 04:34:27;;;;;;;300.58;285.08;;;19.20;91.50;;;;;;5027000;28;20026;-76
2021/07/15 04:36:55;;;;;;;278.60;264.77;;;19.20;91.50;;;;;;5028304;28;20032;-75
2021/07/15 04:39:23;;;;;;;250.50;238.10;;;19.20;91.50;;;;;;5027085;28;20388;-76
2021/07/15 04:41:49;;;;;;;301.17;286.10;;;19.10;91.70;;;;;;5026743;28;20049;-74
2021/07/15 04:44:16;;;;;;;279.88;265.70;;;19.20;91.50;;;;;;5028128;28;20500;-76
2021/07/15 04:46:42;;;;;;;295.60;280.90;;;19.20;91.40;;;;;;5028117;28;20072;-75
2021/07/15 04:49:08;;;;;;;304.33;289.02;;;19.10;91.40;;;;;;5027966;28;20064;-76
2021/07/15 04:51:41;;;;;;;288.17;273.80;;;19.10;91.40;;;;;;5026805;28;20036;-76
2021/07/15 04:54:08;;;;;;;313.85;297.85;;;19.10;91.40;;;;;;5027955;28;20377;-75
2021/07/15 04:56:35;;;;;;;274.67;260.92;;;19.10;91.40;;;;;;5028026;28;20033;-75
2021/07/15 04:59:02;;;;;;;295.98;281.17;;;19.10;91.40;;;;;;5027890;28;20025;-76
2021/07/15 05:01:28;;;;;;;1578.38;824.38;;;19.20;91.40;;;;;;5027869;28;20021;-76
2021/07/15 05:03:54;;;;;;;1568.85;815.28;;;19.10;91.30;;;;;;5026582;28;20407;-76
2021/07/15 05:06:22;;;;;;;212.02;201.43;;;19.20;91.30;;;;;;5027912;28;20040;-76
2021/07/15 05:08:48;;;;;;;1999.90;999.90;;;19.10;91.20;;;;;;5010232;28;20120;-77
2021/07/15 05:11:13;;;;;;;1999.90;999.90;;;19.20;91.20;;;;;;5026179;28;20164;-76
2021/07/15 05:13:39;;;;;;;1999.90;999.90;;;19.20;91.20;;;;;;5010133;28;20033;-77
2021/07/15 05:16:06;;;;;;;1999.90;999.90;;;19.20;91.20;;;;;;5026433;28;20661;-76
2021/07/15 05:18:32;;;;;;;1999.90;999.90;;;19.20;91.10;;;;;;5010025;28;20033;-76
2021/07/15 05:20:58;;;;;;;1999.90;999.90;;;19.20;91.10;;;;;;5026425;28;20484;-77
2021/07/15 05:23:24;;;;;;;1999.90;999.90;;;19.20;91.10;;;;;;5027593;28;20108;-75
2021/07/15 05:25:51;;;;;;;1999.90;999.90;;;19.10;91.00;;;;;;5025933;28;20105;-76
2021/07/15 05:28:17;;;;;;;1999.90;999.90;;;19.20;91.10;;;;;;5027439;28;20033;-76
2021/07/15 05:30:43;;;;;;;1999.90;999.90;;;19.20;91.00;;;;;;5027447;28;20511;-76
2021/07/15 05:33:09;;;;;;;1999.90;999.90;;;19.20;91.00;;;;;;5026300;28;20053;-78
2021/07/15 05:35:35;;;;;;;1999.90;999.90;;;19.20;91.00;;;;;;5026457;28;20034;-76
2021/07/15 05:38:04;;;;;;;1999.90;999.90;;;19.20;91.00;;;;;;5029358;28;20480;-76
2021/07/15 05:40:30;;;;;;;1999.90;999.90;;;19.20;91.00;;;;;;5031590;28;20033;-76
2021/07/15 05:42:56;;;;;;;1999.90;999.90;;;19.20;91.00;;;;;;5031639;28;20520;-77
2021/07/15 05:45:22;;;;;;;1999.90;999.90;;;19.20;90.90;;;;;;5031675;28;20030;-76
2021/07/15 05:47:48;;;;;;;1999.90;999.90;;;19.20;90.90;;;;;;5030051;28;20036;-76
2021/07/15 05:50:14;;;;;;;1999.90;999.90;;;19.20;90.80;;;;;;5031385;28;20022;-77
2021/07/15 05:52:40;;;;;;;1999.90;999.90;;;19.20;90.80;;;;;;5031278;28;20511;-77
2021/07/15 05:55:06;;;;;;;1999.90;999.90;;;19.20;90.70;;;;;;5030038;28;20040;-76
2021/07/15 05:57:34;;;;;;;1999.90;999.90;;;19.20;90.70;;;;;;5029702;28;20114;-75
2021/07/15 06:00:07;;;;;;;1999.90;999.90;;;19.10;90.80;;;;;;5031231;28;20068;-77
2021/07/15 06:02:33;;;;;;;1999.90;999.90;;;19.10;90.80;;;;;;5031125;28;20033;-77
2021/07/15 06:04:59;;;;;;;1999.90;999.90;;;19.20;90.80;;;;;;5031386;28;20029;-76
2021/07/15 06:07:26;;;;;;;1999.90;999.90;;;19.20;90.90;;;;;;5030126;28;20388;-76
2021/07/15 06:09:52;;;;;;;1999.90;999.90;;;19.20;90.90;;;;;;5031070;28;20033;-76
2021/07/15 06:12:18;;;;;;;1999.90;999.90;;;19.30;90.90;;;;;;5030767;28;20033;-77
2021/07/15 06:14:43;;;;;;;1999.90;999.90;;;19.30;90.80;;;;;;5029612;28;20491;-76
2021/07/15 06:17:09;;;;;;;1999.90;999.90;;;19.30;90.70;;;;;;5030864;28;20365;-75
2021/07/15 06:19:35;;;;;;;1999.90;999.90;;;19.30;90.70;;;;;;5012968;28;20598;-75
2021/07/15 06:22:01;;;;;;;1999.90;999.90;;;19.30;90.70;;;;;;5029364;28;20120;-77
2021/07/15 06:24:26;;;;;;;1999.90;999.90;;;19.30;90.70;;;;;;5029150;28;20040;-76
2021/07/15 06:26:52;;;;;;;1999.90;999.90;;;19.30;90.70;;;;;;5029268;28;20496;-76
2021/07/15 06:29:18;;;;;;;1999.90;999.90;;;19.30;90.70;;;;;;5029310;28;20037;-76
2021/07/15 06:31:43;;;;;;;1999.90;999.90;;;19.30;90.70;;;;;;5029282;28;20032;-77
2021/07/15 06:34:10;;;;;;;1999.90;999.90;;;19.30;90.70;;;;;;5029103;28;20029;-77
2021/07/15 06:36:35;;;;;;;1999.90;999.90;;;19.40;90.70;;;;;;5029151;28;20076;-77
2021/07/15 06:39:01;;;;;;;1999.90;999.90;;;19.40;90.70;;;;;;5030431;28;20021;-76
2021/07/15 06:41:27;;;;;;;1999.90;999.90;;;19.40;90.60;;;;;;5030210;28;20541;-76
2021/07/15 06:43:53;;;;;;;1999.90;999.90;;;19.40;90.60;;;;;;5029018;28;20296;-76
2021/07/15 06:46:20;;;;;;;1999.90;999.90;;;19.50;90.60;;;;;;5030292;28;20032;-76
2021/07/15 06:48:46;;;;;;;1999.90;999.90;;;19.60;90.60;;;;;;5029715;28;20472;-77
2021/07/15 06:51:12;;;;;;;1999.90;999.90;;;19.60;90.60;;;;;;5030392;28;20033;-76
2021/07/15 06:53:38;;;;;;;1999.90;999.90;;;19.70;90.50;;;;;;5030164;28;20441;-77
2021/07/15 06:56:04;;;;;;;1999.90;999.90;;;19.70;90.50;;;;;;5028732;28;20060;-76
2021/07/15 06:58:29;;;;;;;1999.90;999.90;;;19.80;90.50;;;;;;5012143;28;20033;-76
2021/07/15 07:00:56;;;;;;;1999.90;999.90;;;19.90;90.50;;;;;;5029706;28;20029;-76
2021/07/15 07:03:22;;;;;;;1999.90;999.90;;;19.90;90.40;;;;;;5029762;28;20033;-76
2021/07/15 07:05:53;;;;;;;1999.90;999.90;;;20.00;90.30;;;;;;5028545;28;20030;-76
2021/07/15 07:08:19;;;;;;;1999.90;999.90;;;20.00;90.20;;;;;;5029789;28;20022;-76
2021/07/15 07:10:45;;;;;;;1999.90;999.90;;;20.00;90.20;;;;;;5028540;28;20056;-75
2021/07/15 07:13:11;;;;;;;1999.90;999.90;;;20.10;90.10;;;;;;5029590;28;20476;-78
2021/07/15 07:15:37;;;;;;;1999.90;999.90;;;20.10;90.00;;;;;;5029614;28;20063;-76
2021/07/15 07:18:03;;;;;;;1999.90;999.90;;;20.20;89.90;;;;;;5028116;28;20152;-77
2021/07/15 07:20:29;;;;;;;1999.90;999.90;;;20.20;89.70;;;;;;5029517;28;20055;-76
2021/07/15 07:22:55;;;;;;;1999.90;999.90;;;20.20;89.70;;;;;;5029827;28;20041;-75
2021/07/15 07:25:21;;;;;;;1999.90;999.90;;;20.20;89.70;;;;;;5028454;28;20036;-77
2021/07/15 07:27:47;;;;;;;1999.90;999.90;;;20.30;89.60;;;;;;5027872;28;20527;-77
2021/07/15 07:30:15;;;;;;;1999.90;999.90;;;20.50;89.30;;;;;;5029377;28;20029;-78
2021/07/15 07:32:41;;;;;;;1999.90;999.90;;;20.50;89.00;;;;;;5029030;28;20137;-77
2021/07/15 07:35:08;;;;;;;1999.90;999.90;;;20.60;89.10;;;;;;5029307;28;20027;-77
2021/07/15 07:37:34;;;;;;;1999.90;999.90;;;20.60;88.50;;;;;;5027808;28;20045;-76
2021/07/15 07:40:00;;;;;;;1999.90;999.90;;;20.60;88.50;;;;;;5029218;28;20026;-77
2021/07/15 07:42:26;;;;;;;1999.90;999.90;;;20.70;88.30;;;;;;5029301;28;20018;-77
2021/07/15 07:44:52;;;;;;;1999.90;999.90;;;20.80;87.90;;;;;;5029147;28;20040;-75
2021/07/15 07:47:18;;;;;;;1999.90;999.90;;;20.90;87.60;;;;;;5027774;28;20029;-76
2021/07/15 07:49:43;;;;;;;1999.90;999.90;;;21.00;87.20;;;;;;5027625;28;20053;-76
2021/07/15 07:52:09;;;;;;;1999.90;999.90;;;21.00;87.00;;;;;;5028633;28;20380;-76
2021/07/15 07:54:35;;;;;;;1999.90;999.90;;;21.10;86.70;;;;;;5011212;28;20104;-76
2021/07/15 07:57:01;;;;;;;1999.90;999.90;;;21.10;86.30;;;;;;5028746;28;20515;-76
2021/07/15 07:59:27;;;;;;;1999.90;999.90;;;21.00;86.10;;;;;;5010604;28;20037;-76
2021/07/15 08:01:53;;;;;;;1999.90;999.90;;;20.90;86.20;;;;;;5027299;28;20079;-76
2021/07/15 08:04:18;;;;;;;1999.90;999.90;;;20.90;86.10;;;;;;5027385;28;20033;-78
2021/07/15 08:06:46;;;;;;;1999.90;999.90;;;21.00;86.10;;;;;;5028720;28;20056;-76
2021/07/15 08:09:13;;;;;;;1999.90;999.90;;;21.00;85.90;;;;;;5028475;28;20037;-75
2021/07/15 08:11:47;;;;;;;1999.90;999.90;;;21.00;85.80;;;;;;5026814;28;20018;-77
2021/07/15 08:14:13;;;;;;;1999.90;999.90;;;21.10;86.00;;;;;;5028353;28;20552;-77
2021/07/15 08:16:39;;;;;;;1999.90;999.90;;;21.20;85.80;;;;;;5028428;28;20116;-77
2021/07/15 08:19:05;;;;;;;1999.90;999.90;;;21.20;85.60;;;;;;5027030;28;20041;-76
2021/07/15 08:21:31;;;;;;;1999.90;999.90;;;21.20;85.30;;;;;;5028218;28;20029;-76
2021/07/15 08:23:58;;;;;;;1999.90;999.90;;;21.30;85.30;;;;;;5028012;28;20032;-76
2021/07/15 08:26:24;;;;;;;1999.90;999.90;;;21.40;85.00;;;;;;5009756;28;20052;-76
2021/07/15 08:28:50;;;;;;;1999.90;999.90;;;21.40;84.60;;;;;;5027977;28;20033;-77
2021/07/15 08:31:16;;;;;;;1999.90;999.90;;;21.30;84.20;;;;;;5027961;28;20411;-77
2021/07/15 08:33:42;;;;;;;1999.90;999.90;;;21.10;84.40;;;;;;5028263;28;20101;-76
2021/07/15 08:36:09;;;;;;;1999.90;999.90;;;21.10;85.10;;;;;;5028250;28;20116;-77
2021/07/15 08:38:35;;;;;;;1999.90;999.90;;;21.30;85.10;;;;;;5028040;28;20027;-77
2021/07/15 08:41:01;;;;;;;1999.90;999.90;;;21.40;84.50;;;;;;5026405;28;20120;-76
2021/07/15 08:43:29;;;;;;;1999.90;999.90;;;21.60;84.00;;;;;;5027970;28;20075;-76
2021/07/15 08:45:58;;;;;;;1999.90;999.90;;;21.70;83.60;;;;;;5026696;28;20021;-76
2021/07/15 08:48:24;;;;;;;1999.90;999.90;;;21.70;83.50;;;;;;5026584;28;20073;-76
2021/07/15 08:50:51;;;;;;;1999.90;999.90;;;21.70;83.80;;;;;;5027703;28;20055;-76
2021/07/15 08:53:18;;;;;;;1999.90;999.90;;;21.70;83.90;;;;;;5027765;28;20030;-76
2021/07/15 08:58:17;;;;;;;1999.90;999.90;;;22.00;82.90;;;;;;5027896;28;20038;-76
2021/07/15 09:00:44;;;;;;;1999.90;999.90;;;22.20;82.60;;;;;;5027704;28;20306;-76
2021/07/15 09:03:11;;;;;;;1999.90;999.90;;;22.40;82.30;;;;;;5027423;28;20036;-76
2021/07/15 09:05:38;;;;;;;1999.90;999.90;;;22.60;81.90;;;;;;5027938;28;20104;-76
2021/07/15 09:08:05;;;;;;;1999.90;999.90;;;23.00;81.80;;;;;;5010267;28;20513;-76
2021/07/15 09:10:30;;;;;;;1999.90;999.90;;;23.40;81.30;;;;;;5026047;28;20079;-77
2021/07/15 09:12:57;;;;;;;30.90;29.20;;;23.80;80.30;;;;;;5025561;28;20430;-77
2021/07/15 09:15:24;;;;;;;34.17;32.08;;;24.20;79.20;;;;;;5028214;28;20025;-76
2021/07/15 09:17:50;;;;;;;32.25;30.40;;;24.50;78.40;;;;;;5029646;28;20469;-77
2021/07/15 09:20:24;;;;;;;39.22;37.13;;;24.90;78.00;;;;;;5030060;28;20037;-79
2021/07/15 09:23:00;;;;;;;37.00;35.03;;;25.40;77.20;;;;;;5033446;28;20016;-78
2021/07/15 09:25:50;;;;;;;36.28;34.35;;;25.50;75.90;;;;;;5031592;28;20030;-78
2021/07/15 09:28:24;;;;;;;53.30;50.58;;;25.70;77.10;;;;;;5016498;28;20033;-78
2021/07/15 09:30:50;;;;;;;103.40;98.28;;;26.90;77.50;;;;;;5030198;28;20021;-78
2021/07/15 09:33:16;;;;;;;138.35;131.45;;;27.70;75.50;;;;;;5012755;28;20035;-78
2021/07/15 09:35:47;;;;;;;127.20;120.85;;;28.40;73.60;;;;;;5028510;28;20092;-78
2021/07/15 09:38:20;;;;;;;73.57;69.78;;;29.00;72.20;;;;;;5029343;28;20093;-78
2021/07/15 09:40:49;;;;;;;46.70;44.22;;;29.80;70.20;;;;;;5029662;28;20029;-79
2021/07/15 09:43:16;;;;;;;52.78;50.03;;;30.30;68.60;;;;;;5028635;28;20512;-77
2021/07/15 09:45:44;;;;;;;42.13;39.78;;;30.30;66.40;;;;;;5028487;28;20446;-78
2021/07/15 09:48:18;;;;;;;44.67;42.08;;;29.90;64.90;;;;;;5029990;28;20472;-78
2021/07/15 09:50:44;;;;;;;43.65;41.20;;;29.50;64.10;;;;;;5043065;28;20070;-80
2021/07/15 09:53:17;;;;;;;34.03;32.00;;;29.20;64.10;;;;;;5029931;28;20026;-77
2021/07/15 09:55:43;;;;;;;30.83;28.98;;;29.00;63.40;;;;;;5030213;28;20490;-78
2021/07/15 09:58:11;;;;;;;30.70;29.00;;;28.80;63.50;;;;;;5027753;28;20164;-78
2021/07/15 10:00:40;;;;;;;33.17;31.42;;;28.70;63.00;;;;;;5028779;28;20037;-76
2021/07/15 10:03:07;;;;;;;30.05;28.33;;;28.40;62.70;;;;;;5029017;28;20087;-77
2021/07/15 10:05:34;;;;;;;35.42;33.50;;;28.20;62.70;;;;;;5028895;28;20061;-79
2021/07/15 10:08:09;;;;;;;36.97;34.78;;;28.00;62.80;;;;;;5027066;28;20025;-77
2021/07/15 10:10:37;;;;;;;32.65;30.25;;;27.90;62.80;;;;;;5027467;28;20481;-77
2021/07/15 10:13:17;;;;;;;30.27;28.48;;;28.00;63.40;;;;;;5028844;28;20025;-76
2021/07/15 10:15:44;;;;;;;54.22;51.28;;;28.60;63.70;;;;;;5026585;28;20018;-76
2021/07/15 10:18:10;;;;;;;66.10;62.78;;;29.50;63.50;;;;;;5028796;28;20563;-76
2021/07/15 10:20:36;;;;;;;42.40;40.15;;;30.10;62.50;;;;;;5027094;28;20030;-77
2021/07/15 10:23:03;;;;;;;47.45;44.40;;;30.40;61.60;;;;;;5029111;28;20044;-77
2021/07/15 10:25:29;;;;;;;48.22;45.72;;;30.30;60.70;;;;;;5031847;28;20087;-77
2021/07/15 10:27:55;;;;;;;42.25;40.05;;;30.10;61.00;;;;;;5031423;28;20084;-77
2021/07/15 10:30:22;;;;;;;42.17;39.67;;;30.40;61.30;;;;;;5032507;28;20494;-77
2021/07/15 10:32:48;;;;;;;23.30;21.83;;;30.90;60.70;;;;;;5032388;28;20034;-78
2021/07/15 10:35:16;;;;;;;28.52;26.42;;;31.60;60.30;;;;;;5032396;28;20104;-79
2021/07/15 10:37:47;;;;;;;35.33;33.37;;;31.70;59.30;;;;;;5031517;28;20593;-78
2021/07/15 10:40:16;;;;;;;32.35;30.70;;;31.70;58.90;;;;;;5043148;28;20087;-77
2021/07/15 10:42:42;;;;;;;33.15;31.27;;;31.70;58.50;;;;;;5030983;28;20037;-79
2021/07/15 10:45:10;;;;;;;63.00;59.88;;;31.60;58.20;;;;;;5032802;28;20079;-78
2021/07/15 10:47:39;;;;;;;48.45;45.95;;;31.60;58.20;;;;;;5031710;28;20635;-78
2021/07/15 10:50:07;;;;;;;67.78;64.40;;;32.00;58.30;;;;;;5032053;28;20417;-77
2021/07/15 10:52:35;;;;;;;60.72;57.70;;;32.40;58.10;;;;;;5030586;28;20034;-79
2021/07/15 10:55:04;;;;;;;77.03;73.18;;;32.80;57.40;;;;;;5031375;28;20021;-79
2021/07/15 10:57:30;;;;;;;76.40;72.60;;;32.90;56.40;;;;;;5031971;28;20483;-77
2021/07/15 11:00:22;;;;;;;60.00;56.80;;;33.00;56.30;;;;;;5030531;28;20021;-78
2021/07/15 11:03:14;;;;;;;33.65;31.83;;;33.30;55.90;;;;;;5032099;28;20040;-78
2021/07/15 11:05:51;;;;;;;227.23;215.88;;;34.00;56.40;;;;;;5022304;28;20101;-76
2021/07/15 11:08:18;;;;;;;308.52;293.25;;;35.20;56.30;;;;;;5029183;28;20025;-76
2021/07/15 11:10:45;;;;;;;116.40;110.65;;;36.00;55.50;;;;;;5030306;28;20029;-77
2021/07/15 11:13:10;;;;;;;72.80;69.03;;;36.60;54.00;;;;;;5030704;28;20032;-77
2021/07/15 11:15:56;;;;;;;74.63;70.68;;;36.50;52.80;;;;;;5030103;28;20025;-77
2021/07/15 11:21:27;;;;;;;46.80;44.35;;;34.90;52.10;;;;;;5031183;28;20116;-79
2021/07/15 11:24:19;;;;;;;37.63;35.42;;;34.30;52.30;;;;;;5012792;28;20389;-79
2021/07/15 11:26:44;;;;;;;66.28;62.90;;;34.80;53.50;;;;;;5010897;28;20472;-80
2021/07/15 11:29:12;;;;;;;40.13;38.05;;;35.60;53.00;;;;;;5031946;28;20038;-79
2021/07/15 11:31:48;;;;;;;47.92;45.28;;;35.60;51.80;;;;;;5031545;28;20390;-80
2021/07/15 11:34:35;;;;;;;96.20;91.28;;;35.10;51.50;;;;;;5031003;28;20025;-79
2021/07/15 11:37:37;;;;;;;61.00;57.72;;;34.80;51.20;;;;;;5030906;28;20021;-79
2021/07/15 11:40:35;;;;;;;194.68;185.27;;;35.50;52.40;;;;;;4987168;28;20459;-82
2021/07/15 11:43:19;;;;;;;161.77;153.93;;;35.90;51.60;;;;;;5016113;28;20029;-78
2021/07/15 11:46:06;;;;;;;48.53;45.83;;;35.50;51.00;;;;;;5028656;28;20032;-78
2021/07/15 11:48:59;;;;;;;121.68;115.65;;;34.70;50.90;;;;;;5010760;28;20034;-80
2021/07/15 11:51:26;;;;;;;140.65;133.65;;;34.00;51.10;;;;;;5033569;28;20060;-81
2021/07/15 11:54:29;;;;;;;135.40;128.80;;;33.70;51.20;;;;;;5030619;28;20101;-72
2021/07/15 11:57:13;;;;;;;107.13;101.45;;;33.50;51.60;;;;;;5023375;28;20033;-78
2021/07/15 11:59:43;;;;;;;87.72;83.32;;;33.70;51.50;;;;;;5029533;28;20415;-80
2021/07/15 12:02:10;;;;;;;110.65;105.05;;;33.70;51.40;;;;;;5029219;28;20667;-80
2021/07/15 12:05:10;;;;;;;118.93;112.78;;;34.20;51.80;;;;;;5030547;28;20018;-79
2021/07/15 12:08:04;;;;;;;110.65;105.25;;;34.30;51.10;;;;;;5009131;28;20025;-81
2021/07/15 12:10:32;;;;;;;83.82;79.53;;;34.00;51.00;;;;;;5012620;28;20626;-79
2021/07/15 12:12:59;;;;;;;60.77;57.57;;;33.40;51.50;;;;;;5042269;28;20052;-80
2021/07/15 12:15:27;;;;;;;65.28;61.88;;;33.10;51.80;;;;;;5028023;28;20022;-80
2021/07/15 12:18:07;;;;;;;88.80;84.22;;;33.10;52.10;;;;;;5029817;28;20139;-79
2021/07/15 12:20:39;;;;;;;45.00;42.75;;;33.70;52.60;;;;;;5027512;28;20171;-80
2021/07/15 12:23:10;;;;;;;144.60;137.38;;;34.70;52.40;;;;;;5027958;28;20026;-79
2021/07/15 12:25:36;;;;;;;267.10;253.80;;;35.50;52.20;;;;;;5028807;28;20025;-79
2021/07/15 12:28:08;;;;;;;284.02;270.20;;;36.20;51.80;;;;;;5028371;28;20183;-79
2021/07/15 12:30:59;;;;;;;243.70;231.77;;;36.40;50.80;;;;;;5028792;28;20025;-79